Main page
Satellite images Climate Cyclones Lightning AirportsFAQ Languages Contact Newsletter About
Weather : Europe Africa North America South America Asia Australia-Oceania Others

pattaya-th, Hua Hin, Hua Hin Airport

48475

latitude: , longitude: Thailand, elevation: 12-35N m


METAR: VTPH 290500Z 06008KT 030V100 9999 FEW030 29/21 Q1013 NOSIG